ěÝzenÝ letovÚho provozu ╚eskÚ republiky
Letiste: LKLN Aktualizace: 28.03.2023 18:31:38  UTC
 METAR LKLN 28.03. 18:30 RRA
METAR LKLN 281830Z AUTO 25003KT 9999 FEW055 OVC150 03/M04 Q1024=